Time;durP1;ratioP1;P1;durP2;ratioP2;P2;SDS_P1;SDS_P2;PMS_P1;PMS_P2;Temp;Humidity;BMP_temperature;BMP_pressure;BME280_temperature;BME280_humidity;BME280_pressure;Samples;Min_cycle;Max_cycle;Signal;HPM_P1;HPM_P2
2021/09/18 00:01:08;;;;;;;1.70;0.80;;;21.40;64.80;;;;;;3050247;29;20044;-88
2021/09/18 00:02:43;;;;;;;1.48;0.73;;;21.30;64.90;;;;;;3050356;29;20613;-87
2021/09/18 00:04:15;;;;;;;1.45;0.80;;;21.30;64.90;;;;;;3045083;29;20049;-90
2021/09/18 00:05:47;;;;;;;1.83;0.87;;;21.30;64.80;;;;;;3055212;29;20052;-88
2021/09/18 00:07:19;;;;;;;1.40;0.70;;;21.30;64.80;;;;;;3052313;29;20304;-88
2021/09/18 00:08:51;;;;;;;1.70;0.70;;;21.30;64.90;;;;;;3046365;29;20052;-88
2021/09/18 00:10:22;;;;;;;1.80;0.70;;;21.30;64.80;;;;;;3049840;29;20413;-88
2021/09/18 00:11:54;;;;;;;2.15;0.75;;;21.30;64.90;;;;;;3048674;29;20045;-87
2021/09/18 00:13:25;;;;;;;1.80;0.63;;;21.30;64.90;;;;;;3050104;29;20048;-87
2021/09/18 00:14:57;;;;;;;1.45;0.73;;;21.30;64.90;;;;;;3047594;29;20067;-88
2021/09/18 00:16:29;;;;;;;1.40;0.82;;;21.30;64.80;;;;;;3047807;29;20044;-88
2021/09/18 00:18:01;;;;;;;1.48;0.88;;;21.30;64.90;;;;;;3046805;29;20461;-88
2021/09/18 00:19:34;;;;;;;1.63;0.70;;;21.30;65.00;;;;;;3048886;29;20100;-88
2021/09/18 00:21:06;;;;;;;1.55;0.80;;;21.30;65.00;;;;;;3048406;29;20048;-88
2021/09/18 00:22:38;;;;;;;0.60;0.60;;;21.30;64.90;;;;;;3049247;29;20064;-88
2021/09/18 00:24:10;;;;;;;2.13;0.80;;;21.30;64.90;;;;;;3054370;29;20052;-88
2021/09/18 00:25:42;;;;;;;0.82;0.60;;;21.30;64.90;;;;;;3044575;29;20047;-89
2021/09/18 00:27:14;;;;;;;0.82;0.70;;;21.30;65.00;;;;;;3049866;29;20064;-88
2021/09/18 00:28:46;;;;;;;1.20;0.60;;;21.30;65.00;;;;;;3046069;29;20047;-88
2021/09/18 00:30:17;;;;;;;0.80;0.60;;;21.20;64.90;;;;;;3053198;29;20051;-88
2021/09/18 00:31:49;;;;;;;1.75;0.68;;;21.20;65.10;;;;;;3048959;29;20620;-88
2021/09/18 00:33:21;;;;;;;0.90;0.80;;;21.20;65.00;;;;;;3049128;29;20111;-88
2021/09/18 00:34:54;;;;;;;3.42;0.80;;;21.20;64.90;;;;;;3052901;29;20047;-87
2021/09/18 00:36:26;;;;;;;1.98;0.80;;;21.20;65.00;;;;;;3052133;29;20056;-88
2021/09/18 00:37:58;;;;;;;1.13;0.82;;;21.20;65.00;;;;;;3049728;29;20059;-88
2021/09/18 00:39:31;;;;;;;0.93;0.57;;;21.20;65.00;;;;;;3053427;29;20502;-88
2021/09/18 00:41:03;;;;;;;1.60;0.77;;;21.20;65.10;;;;;;3047079;29;20044;-88
2021/09/18 00:42:34;;;;;;;1.30;0.73;;;21.20;65.10;;;;;;3046579;29;20080;-89
2021/09/18 00:44:06;;;;;;;0.70;0.65;;;21.20;65.10;;;;;;3049873;29;20048;-89
2021/09/18 00:45:38;;;;;;;1.10;0.63;;;21.20;65.10;;;;;;3047610;29;20056;-88
2021/09/18 00:47:10;;;;;;;2.63;0.75;;;21.20;65.10;;;;;;3047803;29;20640;-88
2021/09/18 00:48:42;;;;;;;0.70;0.68;;;21.20;65.10;;;;;;3051324;29;20487;-88
2021/09/18 00:50:15;;;;;;;1.73;0.70;;;21.20;65.10;;;;;;3050426;29;20452;-86
2021/09/18 00:51:47;;;;;;;1.50;0.75;;;21.20;65.20;;;;;;3040810;29;20059;-89
2021/09/18 00:53:20;;;;;;;1.35;0.73;;;21.20;65.20;;;;;;3046169;29;20048;-88
2021/09/18 00:54:52;;;;;;;0.88;0.73;;;21.20;65.20;;;;;;3048613;29;20055;-86
2021/09/18 00:56:24;;;;;;;1.23;0.70;;;21.20;65.10;;;;;;3049776;29;20044;-88
2021/09/18 00:57:55;;;;;;;1.05;0.82;;;21.20;65.10;;;;;;3042128;29;20116;-86
2021/09/18 00:59:26;;;;;;;1.05;0.70;;;21.20;65.30;;;;;;3057148;29;20499;-88
2021/09/18 01:00:58;;;;;;;2.05;0.60;;;21.20;65.30;;;;;;3054270;29;20447;-88
2021/09/18 01:02:30;;;;;;;2.40;0.63;;;21.20;65.20;;;;;;3054904;29;20047;-89
2021/09/18 01:04:02;;;;;;;1.10;0.60;;;21.20;65.20;;;;;;3048299;29;20045;-89
2021/09/18 01:05:35;;;;;;;0.70;0.55;;;21.10;65.10;;;;;;3052649;29;20883;-88
2021/09/18 01:07:08;;;;;;;1.52;0.75;;;21.20;65.20;;;;;;3053131;29;20099;-88
2021/09/18 01:08:40;;;;;;;1.08;0.55;;;21.20;65.30;;;;;;3047766;29;20621;-88
2021/09/18 01:10:12;;;;;;;0.70;0.68;;;21.10;65.20;;;;;;3052034;29;20048;-88
2021/09/18 01:11:44;;;;;;;1.13;0.70;;;21.20;65.20;;;;;;3049826;29;20055;-86
2021/09/18 01:13:18;;;;;;;0.40;0.40;;;21.20;65.30;;;;;;3055940;29;20083;-89
2021/09/18 01:14:49;;;;;;;0.80;0.68;;;21.20;65.20;;;;;;3048779;29;20139;-88
2021/09/18 01:16:21;;;;;;;2.83;0.90;;;21.10;65.20;;;;;;3052381;29;20048;-89
2021/09/18 01:17:55;;;;;;;0.70;0.60;;;21.10;65.20;;;;;;3043344;29;20100;-88
2021/09/18 01:19:27;;;;;;;1.17;0.73;;;21.10;65.30;;;;;;3045703;29;20052;-87
2021/09/18 01:21:00;;;;;;;1.58;0.55;;;21.10;65.20;;;;;;3049415;29;20044;-88
2021/09/18 01:22:32;;;;;;;1.08;0.80;;;21.10;65.40;;;;;;3052403;29;20051;-89
2021/09/18 01:24:06;;;;;;;0.90;0.68;;;21.10;65.30;;;;;;3041516;29;20060;-88
2021/09/18 01:25:38;;;;;;;0.75;0.68;;;21.10;65.30;;;;;;3053857;29;20467;-89
2021/09/18 01:27:11;;;;;;;0.90;0.70;;;21.10;65.30;;;;;;3049664;29;20127;-89
2021/09/18 01:28:43;;;;;;;0.85;0.70;;;21.10;65.30;;;;;;3050059;29;20072;-89
2021/09/18 01:30:19;;;;;;;0.90;0.70;;;21.10;65.40;;;;;;3052583;29;20079;-88
2021/09/18 01:31:51;;;;;;;1.30;0.70;;;21.10;65.20;;;;;;3049846;29;20048;-88
2021/09/18 01:33:23;;;;;;;1.92;0.90;;;21.10;65.30;;;;;;3047847;29;20488;-88
2021/09/18 01:34:54;;;;;;;3.00;0.80;;;21.10;65.40;;;;;;3055620;29;20130;-89
2021/09/18 01:36:26;;;;;;;1.10;0.70;;;21.10;65.30;;;;;;3048736;29;20308;-88
2021/09/18 01:37:58;;;;;;;1.35;0.70;;;21.00;65.40;;;;;;3050051;29;20049;-88
2021/09/18 01:39:31;;;;;;;0.75;0.60;;;21.10;65.40;;;;;;3044677;29;20059;-85
2021/09/18 01:41:03;;;;;;;0.77;0.60;;;21.10;65.40;;;;;;3042887;29;20044;-89
2021/09/18 01:42:35;;;;;;;0.70;0.70;;;21.10;65.40;;;;;;3051572;29;20052;-89
2021/09/18 01:44:07;;;;;;;0.95;0.60;;;21.10;65.40;;;;;;3046359;29;20504;-88
2021/09/18 01:45:41;;;;;;;0.85;0.55;;;21.10;65.30;;;;;;3044468;29;20049;-88
2021/09/18 01:47:12;;;;;;;0.90;0.63;;;21.00;65.40;;;;;;3051974;29;20047;-88
2021/09/18 01:48:44;;;;;;;1.60;0.82;;;21.10;65.40;;;;;;3045012;29;20048;-88
2021/09/18 01:50:21;;;;;;;0.90;0.75;;;21.00;65.40;;;;;;3039392;29;20053;-89
2021/09/18 01:51:58;;;;;;;1.00;0.65;;;21.00;65.40;;;;;;3041542;29;20122;-87
2021/09/18 01:53:30;;;;;;;0.95;0.52;;;21.00;65.40;;;;;;3043996;29;20476;-88
2021/09/18 01:55:02;;;;;;;1.23;0.70;;;21.00;65.50;;;;;;3052306;29;20078;-88
2021/09/18 01:56:35;;;;;;;0.88;0.60;;;21.00;65.40;;;;;;3052718;29;20052;-87
2021/09/18 01:58:06;;;;;;;0.70;0.65;;;21.00;65.50;;;;;;3050204;29;20056;-89
2021/09/18 01:59:38;;;;;;;1.30;0.70;;;21.00;65.40;;;;;;3047354;29;20057;-88
2021/09/18 02:01:11;;;;;;;1.00;0.80;;;21.00;65.50;;;;;;3046642;29;20040;-89
2021/09/18 02:02:42;;;;;;;0.70;0.70;;;21.00;65.50;;;;;;3048058;29;20052;-89
2021/09/18 02:04:14;;;;;;;2.33;0.70;;;21.00;65.40;;;;;;3050252;29;20052;-89
2021/09/18 02:05:48;;;;;;;0.70;0.63;;;21.00;65.40;;;;;;3044762;29;20059;-91
2021/09/18 02:07:21;;;;;;;0.90;0.70;;;21.00;65.40;;;;;;3045349;29;20108;-88
2021/09/18 02:08:53;;;;;;;0.70;0.50;;;21.00;65.40;;;;;;3053358;29;20119;-91
2021/09/18 02:10:27;;;;;;;0.90;0.60;;;21.00;65.40;;;;;;3058126;29;20422;-91
2021/09/18 02:11:58;;;;;;;1.52;0.80;;;21.00;65.50;;;;;;3052797;29;20044;-91
2021/09/18 02:13:30;;;;;;;1.17;0.68;;;21.00;65.40;;;;;;3050270;29;20076;-91
2021/09/18 02:15:02;;;;;;;1.27;0.70;;;21.00;65.70;;;;;;3054963;29;20051;-90
2021/09/18 02:16:34;;;;;;;2.45;0.70;;;21.00;65.70;;;;;;3046569;29;20130;-89
2021/09/18 02:18:06;;;;;;;1.05;0.70;;;21.00;65.60;;;;;;3050356;29;20515;-90
2021/09/18 02:19:36;;;;;;;0.90;0.60;;;21.00;66.40;;;;;;3048908;29;20507;-89
2021/09/18 02:21:08;;;;;;;2.80;0.73;;;21.00;65.90;;;;;;3056882;29;20134;-90
2021/09/18 02:22:39;;;;;;;0.95;0.60;;;21.00;65.80;;;;;;3053088;29;20070;-89
2021/09/18 02:24:11;;;;;;;1.15;0.73;;;21.00;65.80;;;;;;3055740;29;20048;-90
2021/09/18 02:25:44;;;;;;;1.73;0.50;;;21.00;66.00;;;;;;3046439;29;20664;-91
2021/09/18 02:27:15;;;;;;;1.00;0.70;;;21.00;66.20;;;;;;3049357;29;20060;-90
2021/09/18 02:28:47;;;;;;;1.23;0.70;;;21.00;66.10;;;;;;3049885;29;20114;-92
2021/09/18 02:30:19;;;;;;;1.20;0.70;;;21.00;66.30;;;;;;3045492;29;20063;-91
2021/09/18 02:31:51;;;;;;;1.27;0.70;;;21.00;66.30;;;;;;3042012;29;20088;-90
2021/09/18 02:33:23;;;;;;;1.63;0.80;;;21.00;66.20;;;;;;3051080;29;20444;-90
2021/09/18 02:34:53;;;;;;;1.70;0.55;;;21.00;66.30;;;;;;3051053;29;20096;-91
2021/09/18 02:36:25;;;;;;;1.40;0.60;;;20.90;66.30;;;;;;3046820;29;20048;-90
2021/09/18 02:37:57;;;;;;;1.38;0.73;;;20.90;66.20;;;;;;3046847;29;20127;-90
2021/09/18 02:39:29;;;;;;;0.70;0.60;;;21.00;66.40;;;;;;3050252;29;20052;-90
2021/09/18 02:41:04;;;;;;;4.05;0.82;;;20.90;66.40;;;;;;3058530;29;20912;-90
2021/09/18 02:42:35;;;;;;;0.60;0.60;;;21.00;66.40;;;;;;3050097;29;20135;-90
2021/09/18 02:44:07;;;;;;;1.77;1.00;;;20.90;66.40;;;;;;3046837;29;20052;-89
2021/09/18 02:45:39;;;;;;;1.38;0.65;;;20.90;66.30;;;;;;3045749;29;20113;-89
2021/09/18 02:47:10;;;;;;;4.20;0.80;;;20.90;66.40;;;;;;3040917;29;20139;-88
2021/09/18 02:48:42;;;;;;;2.03;0.80;;;20.90;66.40;;;;;;3047212;29;20526;-91
2021/09/18 02:50:15;;;;;;;2.00;0.73;;;21.00;66.40;;;;;;3040692;29;20053;-91
2021/09/18 02:51:47;;;;;;;;;;;20.90;66.40;;;;;;3043687;29;20050;-89
2021/09/18 02:53:18;;;;;;;0.93;0.60;;;20.90;66.10;;;;;;3045908;29;19926;-91
2021/09/18 02:54:49;;;;;;;2.53;0.70;;;20.90;66.30;;;;;;3048893;29;20048;-90
2021/09/18 02:56:23;;;;;;;1.33;0.70;;;20.90;66.30;;;;;;3045918;29;20578;-90
2021/09/18 02:57:55;;;;;;;2.58;0.70;;;20.90;66.40;;;;;;3047605;29;20059;-91
2021/09/18 02:59:25;;;;;;;1.20;0.60;;;20.90;66.40;;;;;;3043659;29;20076;-90
2021/09/18 03:00:58;;;;;;;1.77;0.75;;;20.90;66.40;;;;;;3047286;29;20041;-91
2021/09/18 03:02:29;;;;;;;0.82;0.70;;;20.90;66.40;;;;;;3054963;29;20055;-89
2021/09/18 03:04:01;;;;;;;2.55;0.60;;;20.90;66.40;;;;;;3040505;29;20390;-88
2021/09/18 03:05:33;;;;;;;2.13;0.55;;;20.90;66.40;;;;;;3050265;29;20100;-90
2021/09/18 03:07:05;;;;;;;0.73;0.52;;;20.90;66.50;;;;;;3047840;29;20503;-90
2021/09/18 03:08:38;;;;;;;0.82;0.50;;;20.90;66.50;;;;;;3042596;29;20060;-91
2021/09/18 03:10:11;;;;;;;1.35;0.88;;;20.90;66.40;;;;;;3048973;29;20442;-90
2021/09/18 03:11:43;;;;;;;0.80;0.55;;;20.90;66.60;;;;;;3054343;29;20048;-90
2021/09/18 03:13:15;;;;;;;;;;;20.90;66.50;;;;;;3050609;29;20103;-89
2021/09/18 03:14:46;;;;;;;1.45;1.00;;;20.90;66.40;;;;;;3038668;29;19927;-91
2021/09/18 03:16:18;;;;;;;2.08;0.80;;;20.90;66.60;;;;;;3046859;29;20518;-90
2021/09/18 03:17:49;;;;;;;2.05;0.77;;;20.80;66.70;;;;;;3046367;29;20060;-91
2021/09/18 03:19:20;;;;;;;1.38;0.60;;;20.80;66.60;;;;;;3043869;29;20123;-89
2021/09/18 03:20:52;;;;;;;1.50;0.70;;;20.90;66.50;;;;;;3042196;29;20051;-89
2021/09/18 03:22:24;;;;;;;0.80;0.50;;;20.90;66.50;;;;;;3050083;29;20048;-91
2021/09/18 03:23:56;;;;;;;1.75;0.65;;;20.90;66.50;;;;;;3051232;29;20066;-91
2021/09/18 03:25:28;;;;;;;1.08;0.60;;;20.90;66.50;;;;;;3047505;29;20059;-90
2021/09/18 03:27:01;;;;;;;1.35;0.70;;;20.90;66.50;;;;;;3049075;29;20043;-90
2021/09/18 03:28:33;;;;;;;1.23;0.70;;;20.90;66.50;;;;;;3048092;29;20056;-90
2021/09/18 03:30:06;;;;;;;0.60;0.60;;;20.90;66.50;;;;;;3046109;29;20139;-91
2021/09/18 03:31:37;;;;;;;;;;;20.90;66.50;;;;;;3052813;29;20064;-92
2021/09/18 03:33:09;;;;;;;1.77;0.70;;;20.90;66.40;;;;;;3046488;29;19923;-88
2021/09/18 03:34:41;;;;;;;1.98;0.85;;;20.90;66.40;;;;;;3047405;29;20534;-91
2021/09/18 03:36:12;;;;;;;1.52;0.70;;;20.90;66.40;;;;;;3055732;29;20051;-90
2021/09/18 03:37:44;;;;;;;0.95;0.73;;;20.90;66.40;;;;;;3052376;29;20052;-91
2021/09/18 03:39:16;;;;;;;0.80;0.73;;;20.90;66.60;;;;;;3054218;29;20106;-90
2021/09/18 03:40:48;;;;;;;0.73;0.63;;;20.80;66.50;;;;;;3051130;29;20055;-90
2021/09/18 03:42:21;;;;;;;1.83;0.50;;;20.80;66.60;;;;;;3055836;29;20054;-90
2021/09/18 03:43:52;;;;;;;0.70;0.70;;;20.80;66.70;;;;;;3046628;29;20075;-91
2021/09/18 03:45:24;;;;;;;1.00;0.68;;;20.80;66.70;;;;;;3048808;29;20095;-90
2021/09/18 03:46:56;;;;;;;0.68;0.60;;;20.80;66.70;;;;;;3048177;29;20052;-90
2021/09/18 03:48:29;;;;;;;0.68;0.60;;;20.80;66.90;;;;;;3048851;29;20048;-90
2021/09/18 03:49:59;;;;;;;0.88;0.80;;;20.80;66.70;;;;;;3051866;29;20051;-91
2021/09/18 03:51:31;;;;;;;1.08;0.75;;;20.80;66.90;;;;;;3045883;29;20103;-91
2021/09/18 03:53:03;;;;;;;0.60;0.60;;;20.80;67.00;;;;;;3046384;29;20064;-91
2021/09/18 03:54:36;;;;;;;0.88;0.60;;;20.80;67.10;;;;;;3049489;29;20104;-90
2021/09/18 03:56:08;;;;;;;1.17;0.60;;;20.70;67.10;;;;;;3057948;29;20107;-90
2021/09/18 03:57:41;;;;;;;0.70;0.60;;;20.80;67.20;;;;;;3055427;29;20419;-90
2021/09/18 03:59:12;;;;;;;0.60;0.60;;;20.90;67.10;;;;;;3048895;29;20048;-90
2021/09/18 04:00:44;;;;;;;1.13;0.80;;;20.90;67.00;;;;;;3049937;29;20053;-89
2021/09/18 04:02:16;;;;;;;0.88;0.70;;;21.00;66.70;;;;;;3048050;29;20099;-88
2021/09/18 04:03:48;;;;;;;0.85;0.60;;;21.10;66.50;;;;;;3054884;29;20060;-89
2021/09/18 04:05:20;;;;;;;1.88;0.50;;;21.20;66.20;;;;;;3052571;29;20049;-91
2021/09/18 04:06:52;;;;;;;0.60;0.60;;;21.30;65.90;;;;;;3048785;29;20044;-90
2021/09/18 04:08:24;;;;;;;0.73;0.50;;;21.40;65.50;;;;;;3040936;29;20059;-89
2021/09/18 04:09:56;;;;;;;0.55;0.50;;;21.60;65.00;;;;;;3049534;29;20628;-91
2021/09/18 04:11:27;;;;;;;0.93;0.60;;;21.70;64.80;;;;;;3047606;29;20100;-90
2021/09/18 04:13:01;;;;;;;0.75;0.70;;;21.70;64.60;;;;;;3049444;29;20060;-90
2021/09/18 04:14:33;;;;;;;1.30;0.60;;;21.80;64.20;;;;;;3049542;29;20764;-90
2021/09/18 04:16:05;;;;;;;1.25;0.60;;;21.90;64.00;;;;;;3053206;29;20040;-91
2021/09/18 04:17:37;;;;;;;0.65;0.60;;;22.00;63.70;;;;;;3055510;29;20056;-91
2021/09/18 04:19:09;;;;;;;0.75;0.60;;;22.10;63.60;;;;;;3046737;29;20099;-89
2021/09/18 04:20:41;;;;;;;0.65;0.60;;;22.10;63.30;;;;;;3050786;29;20158;-90
2021/09/18 04:22:13;;;;;;;0.60;0.60;;;22.20;63.70;;;;;;3051187;29;20048;-90
2021/09/18 04:23:45;;;;;;;0.60;0.50;;;22.20;63.00;;;;;;3051505;29;20123;-90
2021/09/18 04:25:17;;;;;;;0.60;0.50;;;22.30;62.90;;;;;;3046134;29;20554;-90
2021/09/18 04:26:48;;;;;;;0.60;0.52;;;22.30;62.70;;;;;;3041669;29;20064;-90
2021/09/18 04:28:22;;;;;;;0.65;0.55;;;22.40;62.60;;;;;;3051047;29;20056;-89
2021/09/18 04:29:54;;;;;;;0.73;0.60;;;22.40;62.50;;;;;;3050335;29;20048;-90
2021/09/18 04:31:26;;;;;;;1.17;0.60;;;22.50;62.50;;;;;;3052703;29;20052;-90
2021/09/18 04:32:58;;;;;;;0.50;0.50;;;22.40;62.40;;;;;;3041223;29;20571;-89
2021/09/18 04:34:30;;;;;;;0.65;0.50;;;22.50;62.10;;;;;;3041296;29;20048;-91
2021/09/18 04:36:02;;;;;;;0.52;0.50;;;22.60;62.00;;;;;;3047734;29;20063;-90
2021/09/18 04:37:34;;;;;;;0.57;0.57;;;22.60;61.80;;;;;;3053087;29;20092;-90
2021/09/18 04:39:06;;;;;;;0.60;0.45;;;22.70;61.80;;;;;;3044216;29;20044;-90
2021/09/18 04:40:37;;;;;;;0.88;0.60;;;22.70;61.70;;;;;;3050100;29;20075;-90
2021/09/18 04:42:10;;;;;;;1.10;0.50;;;22.70;61.50;;;;;;3043807;29;20052;-90
2021/09/18 04:43:44;;;;;;;0.63;0.60;;;22.80;61.30;;;;;;3043139;29;20055;-91
2021/09/18 04:45:15;;;;;;;0.95;0.50;;;22.80;61.20;;;;;;3051840;29;20084;-90
2021/09/18 04:46:48;;;;;;;0.70;0.60;;;22.80;61.20;;;;;;3050542;29;20048;-91
2021/09/18 04:48:22;;;;;;;0.60;0.57;;;22.80;61.10;;;;;;3051001;29;20056;-91
2021/09/18 04:49:53;;;;;;;0.50;0.50;;;22.90;61.10;;;;;;3039893;29;20048;-90
2021/09/18 04:51:25;;;;;;;0.77;0.52;;;22.80;61.10;;;;;;3048833;29;20141;-91
2021/09/18 04:52:57;;;;;;;0.65;0.60;;;22.90;61.30;;;;;;3040810;29;20385;-91
2021/09/18 04:54:29;;;;;;;0.80;0.60;;;22.90;61.20;;;;;;3051536;29;20063;-90
2021/09/18 04:56:00;;;;;;;0.50;0.50;;;22.90;61.10;;;;;;3049815;29;20096;-90
2021/09/18 04:57:32;;;;;;;0.77;0.63;;;22.90;61.20;;;;;;3056024;29;20048;-91
2021/09/18 04:59:06;;;;;;;1.33;0.60;;;22.90;61.10;;;;;;3042416;29;20048;-90
2021/09/18 05:00:38;;;;;;;0.50;0.50;;;22.90;61.00;;;;;;3057344;29;20052;-90
2021/09/18 05:02:08;;;;;;;0.50;0.50;;;23.00;60.80;;;;;;3055681;29;20495;-91
2021/09/18 05:03:40;;;;;;;0.80;0.50;;;23.10;60.70;;;;;;3045470;29;20047;-91
2021/09/18 05:05:12;;;;;;;0.65;0.50;;;23.00;60.60;;;;;;3046621;29;20048;-91
2021/09/18 05:06:44;;;;;;;0.70;0.57;;;23.10;60.60;;;;;;3043336;29;20122;-90
2021/09/18 05:08:16;;;;;;;0.88;0.52;;;23.10;60.70;;;;;;3050600;29;20087;-90
2021/09/18 05:09:47;;;;;;;0.50;0.50;;;23.00;60.70;;;;;;3049732;29;20135;-89
2021/09/18 05:11:19;;;;;;;0.40;0.40;;;23.00;60.70;;;;;;3056953;29;20114;-89
2021/09/18 05:12:51;;;;;;;0.60;0.60;;;23.00;60.80;;;;;;3045373;29;20483;-89
2021/09/18 05:14:25;;;;;;;0.50;0.50;;;23.00;60.60;;;;;;3044311;29;20052;-90
2021/09/18 05:15:57;;;;;;;0.68;0.68;;;23.00;60.70;;;;;;3048239;29;20040;-91
2021/09/18 05:17:29;;;;;;;0.40;0.40;;;23.10;60.60;;;;;;3041140;29;20756;-90
2021/09/18 05:19:01;;;;;;;0.77;0.40;;;23.10;60.50;;;;;;3049539;29;20051;-91
2021/09/18 05:20:33;;;;;;;0.60;0.60;;;23.10;60.60;;;;;;3044905;29;20052;-92
2021/09/18 05:22:05;;;;;;;0.77;0.63;;;23.10;60.60;;;;;;3042941;29;20499;-91
2021/09/18 05:23:38;;;;;;;0.45;0.45;;;23.10;60.80;;;;;;3039340;29;20047;-91
2021/09/18 05:25:10;;;;;;;0.57;0.57;;;23.10;60.70;;;;;;3040950;29;20048;-90
2021/09/18 05:26:42;;;;;;;0.52;0.52;;;23.10;60.60;;;;;;3043356;29;20527;-89
2021/09/18 05:28:14;;;;;;;0.88;0.50;;;23.10;60.60;;;;;;3046709;29;20063;-91
2021/09/18 05:29:47;;;;;;;0.75;0.57;;;23.10;60.60;;;;;;3043177;29;20051;-91
2021/09/18 05:31:19;;;;;;;0.60;0.60;;;23.10;60.60;;;;;;3047019;29;20044;-91
2021/09/18 05:32:50;;;;;;;0.60;0.50;;;23.10;60.60;;;;;;3046979;29;20052;-89
2021/09/18 05:34:22;;;;;;;0.98;0.50;;;23.10;60.60;;;;;;3044961;29;20103;-90
2021/09/18 05:35:54;;;;;;;0.40;0.40;;;23.20;60.70;;;;;;3040074;29;20084;-91
2021/09/18 05:37:28;;;;;;;0.68;0.50;;;23.20;60.70;;;;;;3055734;29;20052;-90
2021/09/18 05:38:59;;;;;;;0.77;0.52;;;23.20;60.70;;;;;;3049853;29;20051;-90
2021/09/18 05:40:33;;;;;;;0.50;0.50;;;23.20;60.70;;;;;;3043453;29;20044;-90
2021/09/18 05:42:05;;;;;;;0.80;0.60;;;23.20;60.90;;;;;;3041892;29;20064;-91
2021/09/18 05:43:37;;;;;;;0.65;0.50;;;23.20;60.90;;;;;;3048104;29;20056;-90
2021/09/18 05:45:10;;;;;;;5.30;0.70;;;23.20;60.90;;;;;;3048674;29;20059;-90
2021/09/18 05:46:42;;;;;;;4.18;0.80;;;23.20;61.20;;;;;;3046679;29;20119;-90
2021/09/18 05:48:14;;;;;;;4.32;0.80;;;23.10;61.10;;;;;;3045065;29;20119;-90
2021/09/18 05:49:46;;;;;;;3.60;0.90;;;23.20;61.10;;;;;;3042468;29;20051;-90
2021/09/18 05:51:18;;;;;;;8.57;1.00;;;23.20;61.00;;;;;;3045563;29;20052;-89
2021/09/18 05:52:49;;;;;;;3.80;0.70;;;23.20;61.00;;;;;;3047334;29;20040;-90
2021/09/18 05:54:21;;;;;;;9.70;0.82;;;23.20;61.00;;;;;;3046731;29;20148;-91
2021/09/18 05:55:53;;;;;;;5.13;0.60;;;23.20;61.20;;;;;;3046887;29;20044;-90
2021/09/18 05:57:24;;;;;;;8.30;0.90;;;23.20;61.20;;;;;;3044775;29;20610;-91
2021/09/18 05:58:57;;;;;;;5.60;1.35;;;23.20;61.10;;;;;;3047975;29;20427;-90
2021/09/18 06:00:30;;;;;;;3.35;0.70;;;23.20;61.30;;;;;;3056359;29;20071;-90
2021/09/18 06:02:02;;;;;;;6.00;0.88;;;23.30;61.30;;;;;;3049682;29;20419;-89
2021/09/18 06:03:35;;;;;;;1.98;0.70;;;23.30;61.20;;;;;;3045880;29;20048;-90
2021/09/18 06:05:08;;;;;;;4.45;0.82;;;23.30;61.30;;;;;;3042136;29;20060;-90
2021/09/18 06:06:40;;;;;;;;;;;23.30;61.40;;;;;;3053394;29;20072;-90
2021/09/18 06:08:12;;;;;;;4.35;0.60;;;23.20;61.30;;;;;;3048079;29;19923;-90
2021/09/18 06:09:44;;;;;;;4.32;0.80;;;23.20;61.60;;;;;;3040881;29;20448;-91
2021/09/18 06:11:15;;;;;;;4.60;0.93;;;23.20;61.60;;;;;;3045974;29;20416;-89
2021/09/18 06:12:47;;;;;;;1.50;0.68;;;23.20;61.70;;;;;;3058074;29;20456;-89
2021/09/18 06:14:19;;;;;;;3.75;0.60;;;23.20;61.70;;;;;;3057884;29;20566;-89
2021/09/18 06:15:52;;;;;;;2.63;0.80;;;23.20;61.70;;;;;;3051015;29;20044;-90
2021/09/18 06:17:24;;;;;;;4.55;0.75;;;23.30;61.80;;;;;;3043710;29;20188;-90
2021/09/18 06:18:56;;;;;;;3.83;0.80;;;23.30;62.00;;;;;;3046876;29;20056;-90
2021/09/18 06:20:29;;;;;;;3.60;0.80;;;23.20;62.10;;;;;;3048774;29;20448;-89
2021/09/18 06:22:01;;;;;;;3.53;0.73;;;23.30;62.10;;;;;;3038589;29;20075;-89
2021/09/18 06:23:37;;;;;;;1.30;0.60;;;23.30;61.80;;;;;;3038862;29;20061;-89
2021/09/18 06:25:12;;;;;;;3.83;0.85;;;23.30;61.80;;;;;;3045003;29;20052;-87
2021/09/18 06:26:45;;;;;;;3.28;0.80;;;23.30;61.90;;;;;;3054245;29;20060;-89
2021/09/18 06:28:18;;;;;;;6.35;0.60;;;23.30;61.90;;;;;;3056331;29;20048;-89
2021/09/18 06:29:50;;;;;;;4.20;0.75;;;23.30;62.00;;;;;;3040692;29;20071;-89
2021/09/18 06:31:24;;;;;;;3.03;0.98;;;23.30;61.90;;;;;;3051160;29;20058;-90
2021/09/18 06:32:56;;;;;;;1.65;0.73;;;23.30;62.20;;;;;;3046189;29;20103;-89
2021/09/18 06:34:28;;;;;;;2.80;0.70;;;23.20;62.10;;;;;;3045689;29;20099;-90
2021/09/18 06:36:00;;;;;;;2.60;0.70;;;23.20;62.10;;;;;;3043134;29;20048;-89
2021/09/18 06:37:31;;;;;;;3.03;0.90;;;23.30;62.20;;;;;;3047099;29;20060;-89
2021/09/18 06:39:03;;;;;;;2.15;0.70;;;23.30;62.20;;;;;;3036863;29;20492;-88
2021/09/18 06:40:35;;;;;;;4.95;0.70;;;23.30;62.20;;;;;;3042582;29;20052;-89
2021/09/18 06:42:07;;;;;;;2.72;0.60;;;23.30;62.20;;;;;;3048936;29;20047;-89
2021/09/18 06:43:39;;;;;;;3.78;0.90;;;23.30;62.10;;;;;;3044768;29;20060;-89
2021/09/18 06:45:11;;;;;;;9.48;1.23;;;23.30;61.90;;;;;;3044998;29;20052;-88
2021/09/18 06:46:44;;;;;;;12.73;1.52;;;23.30;61.90;;;;;;3044594;29;20493;-87
2021/09/18 06:48:16;;;;;;;8.85;1.65;;;23.30;62.20;;;;;;3050630;29;20046;-87
2021/09/18 06:49:47;;;;;;;9.00;1.30;;;23.30;62.20;;;;;;3047442;29;20397;-87
2021/09/18 06:51:20;;;;;;;7.70;1.30;;;23.30;62.20;;;;;;3049904;29;20084;-87
2021/09/18 06:52:52;;;;;;;7.55;1.67;;;23.30;61.90;;;;;;3048117;29;20126;-87
2021/09/18 06:54:23;;;;;;;8.50;1.70;;;23.20;61.50;;;;;;3044972;29;20099;-87
2021/09/18 06:55:55;;;;;;;11.10;1.67;;;23.10;61.50;;;;;;3051280;29;20048;-87
2021/09/18 06:57:27;;;;;;;10.00;1.48;;;23.10;61.40;;;;;;3048597;29;20051;-87
2021/09/18 06:58:59;;;;;;;3.92;1.60;;;23.20;61.20;;;;;;3043331;29;20064;-87
2021/09/18 07:00:31;;;;;;;6.22;1.90;;;23.30;61.20;;;;;;3043996;29;20068;-86
2021/09/18 07:02:03;;;;;;;4.13;1.30;;;23.30;61.10;;;;;;3046429;29;20048;-87
2021/09/18 07:03:35;;;;;;;5.80;1.40;;;23.30;61.10;;;;;;3049977;29;20063;-86
2021/09/18 07:05:08;;;;;;;6.13;1.30;;;23.30;61.00;;;;;;3049657;29;20048;-87
2021/09/18 07:06:40;;;;;;;6.82;1.40;;;23.30;60.70;;;;;;3048020;29;20295;-87
2021/09/18 07:08:13;;;;;;;4.28;1.25;;;23.40;60.60;;;;;;3046756;29;20104;-87
2021/09/18 07:09:44;;;;;;;2.03;1.30;;;23.40;60.60;;;;;;3042723;29;20077;-87
2021/09/18 07:11:16;;;;;;;3.38;1.20;;;23.40;60.50;;;;;;3043429;29;20123;-87
2021/09/18 07:12:48;;;;;;;5.20;1.30;;;23.40;60.40;;;;;;3043022;29;20068;-87
2021/09/18 07:14:19;;;;;;;4.43;1.33;;;23.50;60.30;;;;;;3044233;29;20063;-86
2021/09/18 07:15:52;;;;;;;2.45;1.30;;;23.50;60.30;;;;;;3042339;29;20127;-86
2021/09/18 07:17:25;;;;;;;;;;;23.50;60.20;;;;;;3051412;29;20134;-87
2021/09/18 07:18:57;;;;;;;3.38;1.30;;;23.50;60.30;;;;;;3045880;29;20291;-87
2021/09/18 07:20:29;;;;;;;2.65;1.17;;;23.40;60.30;;;;;;3045119;29;20166;-87
2021/09/18 07:22:01;;;;;;;3.47;1.20;;;23.50;60.30;;;;;;3046532;29;20052;-86
2021/09/18 07:23:33;;;;;;;1.35;1.00;;;23.40;60.20;;;;;;3048193;29;20048;-87
2021/09/18 07:25:06;;;;;;;2.88;1.20;;;23.40;60.20;;;;;;3048184;29;20052;-87
2021/09/18 07:26:37;;;;;;;4.45;1.10;;;23.50;60.20;;;;;;3058657;29;20136;-86
2021/09/18 07:28:09;;;;;;;1.10;1.00;;;23.50;60.10;;;;;;3046078;29;20263;-87
2021/09/18 07:29:41;;;;;;;5.53;1.20;;;23.50;60.10;;;;;;3046380;29;20125;-87
2021/09/18 07:31:13;;;;;;;1.98;0.93;;;23.50;60.10;;;;;;3049297;29;20052;-87
2021/09/18 07:32:46;;;;;;;3.83;1.00;;;23.40;60.10;;;;;;3047415;29;20096;-86
2021/09/18 07:34:18;;;;;;;2.58;1.10;;;23.40;60.10;;;;;;3050756;29;20052;-86
2021/09/18 07:35:50;;;;;;;2.03;0.90;;;23.50;59.90;;;;;;3049928;29;20069;-87
2021/09/18 07:37:22;;;;;;;3.20;1.02;;;23.50;59.80;;;;;;3051116;29;20556;-86
2021/09/18 07:38:54;;;;;;;1.88;1.02;;;23.50;59.80;;;;;;3045407;29;20052;-87
2021/09/18 07:40:26;;;;;;;3.72;1.00;;;23.50;59.70;;;;;;3047317;29;20037;-87
2021/09/18 07:41:58;;;;;;;2.45;1.00;;;23.50;59.90;;;;;;3047075;29;20049;-87
2021/09/18 07:43:30;;;;;;;2.22;1.13;;;23.40;59.80;;;;;;3045838;29;20061;-87
2021/09/18 07:45:01;;;;;;;3.50;1.00;;;23.50;59.80;;;;;;3046131;29;20052;-87
2021/09/18 07:46:33;;;;;;;2.42;1.08;;;23.50;59.60;;;;;;3041051;29;20048;-86
2021/09/18 07:48:07;;;;;;;2.67;1.10;;;23.50;59.60;;;;;;3041784;29;20116;-86
2021/09/18 07:49:39;;;;;;;4.93;1.10;;;23.50;59.40;;;;;;3049881;29;20052;-87
2021/09/18 07:51:11;;;;;;;6.35;1.00;;;23.50;59.30;;;;;;3043180;29;20057;-87
2021/09/18 07:52:42;;;;;;;1.30;1.00;;;23.50;59.40;;;;;;3040931;29;20139;-86
2021/09/18 07:54:14;;;;;;;3.67;1.13;;;23.50;59.40;;;;;;3041522;29;20048;-87
2021/09/18 07:55:46;;;;;;;2.22;0.90;;;23.50;60.00;;;;;;3047729;29;20055;-87
2021/09/18 07:57:17;;;;;;;2.67;1.10;;;23.50;59.30;;;;;;3052548;29;20060;-87
2021/09/18 07:58:54;;;;;;;3.80;1.00;;;23.50;59.20;;;;;;3038846;29;20519;-87
2021/09/18 08:00:25;;;;;;;1.88;0.90;;;23.50;59.40;;;;;;3045073;29;20577;-87